Alu, Malaysia

6:56 PM MYT on December 10, 2016 (GMT +0800)
Kudat | | Change Station

Elev 16 ft 6.92 °N, 116.84 °E | Updated 56 minutes ago

Mostly Cloudy
Mostly Cloudy
81 °F
Feels Like 87 °F
N
2
Wind Variable Wind from North

Today
High -- | Low -- °F
--% Chance of Precip.
Yesterday
High -- | Low -- °F
Precip. -- in
Pressure 29.71 in
Visibility 6.2 miles
Clouds Scattered Clouds 1500 ft
Scattered Clouds 14000 ft
Mostly Cloudy 27000 ft
Heat Index 87 °F
Dew Point 77 °F
Humidity 89%
Rainfall 0.00 in
Snow Depth Not available.
6:12 AM 5:56 PM
Waxing Gibbous, 82% visible
METAR WBKT 101000Z 36002KT 9999 SCT015 SCT140 BKN270 27/25 Q1006
Pressure 29.71 in
Visibility 6.2 miles
Clouds Scattered Clouds 1500 ft
Scattered Clouds 14000 ft
Mostly Cloudy 27000 ft
Heat Index 87 °F
Dew Point 77 °F
Humidity 89%
Rainfall 0.00 in
Snow Depth Not available.
6:12 AM 5:56 PM
Waxing Gibbous, 82% visible
METAR WBKT 101000Z 36002KT 9999 SCT015 SCT140 BKN270 27/25 Q1006

10-Day Weather Forecast

No radar image for this location.
×

Almanac

Astronomy

Dec. 10, 2016 Rise Set
Actual Time
Civil Twilight
Nautical Twilight
Astronomical Twilight
Moon
Length of Visible Light
Length of Day
Tomorrow will be .
, % of the Moon is Illuminated

Today's Extremes

Country Highs Country Lows

Community

WunderPhotos

Upload Photos

1,956,536 photos uploaded!

WunderBlog® & News

Nearby

Air Quality

  Air Quality AQ Index Pollutant
Not available.

Snow Depth

Station Depth Elevation

Earthquake Activity

City Distance Mag. Time & Date
Minimum magnitude displayed is 2.5.

Coastal Water Temperatures

Place Temperature

Stations

Nearby Weather Stations

Station Location Temp. Windchill Dew Point Humidity Wind Precip. Elev Updated Type